ADDS METAR Data INFO
IDs: Format: Raw Decoded Include TAF

Data at: 1054 UTC 19 Oct 2017

PAWM 191023Z AUTO 29006KT 10SM BKN018 M06/M10 A2959 RMK AO2 FZRANO PNO $
PAWM 190956Z AUTO 27005KT 10SM FEW020 M06/M09 A2959 RMK AO2 SLP024 T10611094 FZRANO PNO $
PAWM 190856Z AUTO 33005KT 10SM CLR M06/M10 A2959 RMK AO2 SLP025 6//// T10611100 400111061 51003 FZRANO PNO $
PAWM 190756Z AUTO 34006KT 10SM CLR M06/M09 A2959 RMK AO2 SLP024 T10561094 FZRANO PNO $
PAWM 190656Z AUTO 34006KT 10SM OVC110 M04/M08 A2959 RMK AO2 SLP024 T10441083 FZRANO PNO $
PAWM 190556Z AUTO 36006KT 10SM OVC110 M04/M08 A2958 RMK AO2 SLP022 6//// T10391083 10011 21044 51007 FZRANO PNO $
PAWM 190456Z AUTO 35005KT 10SM CLR M04/M09 A2958 RMK AO2 SLP022 T10391089 FZRANO PNO $
PAWM 190356Z AUTO 36008KT 10SM CLR M03/M08 A2957 RMK AO2 SLP018 T10331083 FZRANO PNO $
PAWM 190256Z AUTO 35008KT 9SM CLR M02/M09 A2956 RMK AO2 SLP015 6//// T10171089 53005 FZRANO PNO $
PAWM 190156Z AUTO 36009KT 10SM BKN034 M01/M08 A2955 RMK AO2 SLP011 T10111083 FZRANO PNO $
PAWM 190056Z AUTO 35014G19KT 10SM OVC034 01/M06 A2954 RMK AO2 SLP009 T00061061 FZRANO PNO $
PAWM 182356Z AUTO 33014KT 9SM CLR 01/M06 A2954 RMK AO2 SLP009 6//// T00061061 10006 21039 57005 FZRANO PNO $
PAWM 182256Z AUTO 33015KT 9SM CLR 01/M05 A2955 RMK AO2 SLP011 T00061050 FZRANO PNO $
PAWM 182156Z AUTO 33012KT 10SM FEW046 01/M05 A2955 RMK AO2 SLP012 T00061050 FZRANO PNO $
PAWM 182056Z AUTO 33010KT 10SM BKN048 M01/M03 A2956 RMK AO2 SLP014 6//// T10061033 53006 FZRANO PNO $
PAWM 181956Z AUTO 33013KT 10SM CLR M02/M03 A2955 RMK AO2 SLP012 T10221033 FZRANO PNO $
PAWM 181856Z AUTO 35011KT 10SM OVC100 M03/M03 A2954 RMK AO2 SLP010 T10281033 FZRANO PNO $
PAWM 181756Z AUTO 34004KT 10SM FEW090 M04/M04 A2954 RMK AO2 SLP008 6//// T10391044 11028 21039 53000 FZRANO PNO $
PAWM 181656Z AUTO 35010KT 10SM OVC120 M04/M04 A2954 RMK AO2 SLP007 T10391044 FZRANO PNO $
PAWM 181556Z AUTO 34007KT 10SM SCT080 OVC100 M03/M04 A2954 RMK AO2 SLP007 T10331044 FZRANO PNO $
PAWM 181456Z AUTO 33009KT 10SM SCT080 M03/M04 A2954 RMK AO2 SLP008 6//// T10331039 57005 FZRANO PNO $
PAWM 181356Z AUTO 33011KT 10SM SCT034 SCT100 M03/M04 A2954 RMK AO2 SLP009 T10331039 FZRANO PNO $
PAWM 181256Z AUTO 33009KT 10SM FEW120 M03/M04 A2955 RMK AO2 SLP011 T10331039 FZRANO PNO $
PAWM 181156Z AUTO 34011KT 10SM CLR M03/M04 A2955 RMK AO2 SLP013 6//// 7//// T10281039 11022 21033 55001 FZRANO PNO $
PAWM 181056Z AUTO 34010KT 10SM FEW110 M03/M04 A2955 RMK AO2 SLP012 T10281044 FZRANO PNO $
PAWM 180956Z AUTO 33008KT 10SM OVC100 M03/M04 A2956 RMK AO2 SLP014 T10281044 FZRANO PNO $
PAWM 180856Z AUTO 34005KT 10SM OVC100 M03/M04 A2956 RMK AO2 SLP014 6//// T10281039 400171028 53007 FZRANO PNO $
PAWM 180756Z AUTO 31004KT 10SM BKN070 OVC085 M02/M03 A2955 RMK AO2 SLP012 T10221033 FZRANO PNO $
PAWM 180656Z AUTO 33006KT 10SM FEW060 OVC090 M02/M03 A2954 RMK AO2 SLP009 T10221033 FZRANO PNO $
PAWM 180556Z AUTO 32008KT 10SM BKN033 BKN095 M02/M04 A2954 RMK AO2 SLP007 6//// T10221044 10011 21022 53005 FZRANO PNO $
PAWM 180456Z AUTO 29004KT 10SM CLR M02/M04 A2953 RMK AO2 SLP005 T10221044 FZRANO PNO $
PAWM 180356Z AUTO 32005KT 10SM CLR M02/M04 A2952 RMK AO2 SLP003 T10171039 FZRANO PNO $
PAWM 180256Z AUTO 32005KT 10SM CLR 00/M03 A2952 RMK AO2 SLP002 6//// T00001033 55000 FZRANO PNO $
PAWM 180209Z AUTO 36006KT 10SM SCT025 01/M03 A2952 RMK AO2 FZRANO PNO $
PAWM 180156Z AUTO 01005KT 10SM BKN025 01/M03 A2951 RMK AO2 SLP999 T00111033 FZRANO PNO $
PAWM 180056Z AUTO 32008KT 10SM OVC025 01/M03 A2952 RMK AO2 SLP001 T00061033 FZRANO PNO $
PAWM 172356Z AUTO 33008KT 10SM BKN023 01/M03 A2952 RMK AO2 SLP002 6//// T00061028 10017 21017 58002 FZRANO PNO $
PAWM 172352Z AUTO 35007KT 10SM BKN021 01/M03 A2952 RMK AO2 FZRANO PNO $
PAWM 172335Z AUTO 35005KT 10SM SCT021 00/M02 A2953 RMK AO2 FZRANO PNO $
PAWM 172327Z AUTO 35007KT 10SM BKN023 01/M03 A2953 RMK AO2 FZRANO PNO $
PAWM 172256Z AUTO 36004KT 10SM SCT024 02/00 A2953 RMK AO2 SLP004 T00170000 FZRANO PNO $